Time;durP1;ratioP1;P1;durP2;ratioP2;P2;SDS_P1;SDS_P2;PMS_P1;PMS_P2;Temp;Humidity;BMP_temperature;BMP_pressure;BME280_temperature;BME280_humidity;BME280_pressure;Samples;Min_cycle;Max_cycle;Signal;HPM_P1;HPM_P2
2021/11/12 00:17:00;;;;;;;9.00;5.00;;;;;;;;;;4935119;28;20049;-63
2021/11/12 00:19:26;;;;;;;5.50;4.70;;;;;;;;;;4222759;33;20124;-63
2021/11/12 00:21:53;;;;;;;6.20;5.05;;;;;;;;;;4230205;33;20089;-64
2021/11/12 00:24:19;;;;;;;5.93;5.35;;;;;;;;;;4220683;33;20106;-64
2021/11/12 00:26:46;;;;;;;6.75;4.95;;;;;;;;;;4221042;33;20556;-72
2021/11/12 00:29:13;;;;;;;5.22;4.45;;;;;;;;;;4233609;33;20516;-72
2021/11/12 00:41:37;;;;;;;5.97;5.03;;;;;;;;;;4219773;34;20155;-64
2021/11/12 00:46:41;;;;;;;6.40;5.07;;;;;;;;;;4219639;34;20590;-64
2021/11/12 00:49:13;;;;;;;7.40;5.22;;;;;;;;;;4219401;34;20409;-63
2021/11/12 00:51:43;;;;;;;7.55;5.22;;;;;;;;;;4219346;34;20796;-72
2021/11/12 00:54:09;;;;;;;5.32;4.82;;;;;;;;;;4218550;33;20204;-72
2021/11/12 00:56:35;;;;;;;6.12;4.97;;;;;;;;;;4233266;33;20132;-72
2021/11/12 00:59:02;;;;;;;9.07;5.28;;;;;;;;;;4219982;33;20180;-72
2021/11/12 01:01:30;;;;;;;6.97;5.00;;;;;;;;;;4233579;33;20120;-72
2021/11/12 01:03:56;;;;;;;6.45;4.82;;;;;;;;;;4233391;33;20105;-72
2021/11/12 01:06:22;;;;;;;5.93;5.00;;;;;;;;;;4220511;33;20600;-72
2021/11/12 01:08:48;;;;;;;5.93;5.32;;;;;;;;;;4232939;33;20528;-72
2021/11/12 01:11:15;;;;;;;7.68;5.25;;;;;;;;;;4233138;33;20299;-64
2021/11/12 01:13:41;;;;;;;6.20;5.53;;;;;;;;;;4233129;33;20176;-64
2021/11/12 01:16:06;;;;;;;6.03;5.10;;;;;;;;;;4233127;33;20227;-64
2021/11/12 01:18:35;;;;;;;6.93;5.43;;;;;;;;;;4232620;33;20100;-64
2021/11/12 01:21:03;;;;;;;7.07;5.50;;;;;;;;;;4219033;34;20580;-64
2021/11/12 01:23:28;;;;;;;6.60;5.45;;;;;;;;;;4219119;34;20482;-64
2021/11/12 01:25:54;;;;;;;7.22;5.00;;;;;;;;;;4206111;34;20118;-64
2021/11/12 01:28:20;;;;;;;6.97;5.43;;;;;;;;;;4218894;34;20117;-64
2021/11/12 01:30:46;;;;;;;6.97;5.10;;;;;;;;;;4219001;34;20113;-64
2021/11/12 01:33:12;;;;;;;5.97;5.28;;;;;;;;;;4218808;34;20249;-64
2021/11/12 01:35:38;;;;;;;5.90;4.75;;;;;;;;;;4218878;34;20129;-64
2021/11/12 01:38:04;;;;;;;6.40;5.30;;;;;;;;;;4218917;34;20114;-64
2021/11/12 01:40:30;;;;;;;5.75;5.12;;;;;;;;;;4218817;34;20520;-64
2021/11/12 01:46:23;;;;;;;7.05;5.40;;;;;;;;;;4218862;34;20110;-64
2021/11/12 01:59:16;;;;;;;6.82;5.10;;;;;;;;;;4232475;33;20090;-64
2021/11/12 02:01:55;;;;;;;6.97;5.20;;;;;;;;;;4232713;33;20767;-64
2021/11/12 02:04:26;;;;;;;6.32;5.10;;;;;;;;;;4232752;33;20096;-64
2021/11/12 02:06:52;;;;;;;5.97;4.50;;;;;;;;;;4232648;33;20188;-64
2021/11/12 02:09:21;;;;;;;5.40;4.90;;;;;;;;;;4219685;33;20105;-64
2021/11/12 02:11:56;;;;;;;6.47;4.90;;;;;;;;;;4232632;33;20219;-64
2021/11/12 02:14:22;;;;;;;6.63;4.97;;;;;;;;;;4232640;33;20524;-64
2021/11/12 02:16:54;;;;;;;7.95;5.18;;;;;;;;;;4232551;33;20123;-64
2021/11/12 02:19:20;;;;;;;5.78;4.72;;;;;;;;;;4232602;33;20101;-64
2021/11/12 02:24:13;;;;;;;7.53;5.18;;;;;;;;;;4218025;34;20152;-64
2021/11/12 02:26:42;;;;;;;7.87;5.47;;;;;;;;;;4218266;34;20533;-63
2021/11/12 02:29:09;;;;;;;5.80;4.60;;;;;;;;;;4218000;34;20273;-63
2021/11/12 02:31:36;;;;;;;8.20;5.22;;;;;;;;;;4205165;34;20111;-63
2021/11/12 02:34:07;;;;;;;8.00;5.25;;;;;;;;;;4218172;34;20128;-63
2021/11/12 02:36:34;;;;;;;5.70;4.72;;;;;;;;;;4218116;34;20093;-63
2021/11/12 02:39:00;;;;;;;7.43;4.80;;;;;;;;;;4218120;34;20117;-63
2021/11/12 02:41:26;;;;;;;7.40;5.68;;;;;;;;;;4218320;34;20165;-63
2021/11/12 02:43:53;;;;;;;5.97;4.90;;;;;;;;;;4218189;34;20518;-63
2021/11/12 02:46:20;;;;;;;7.05;5.37;;;;;;;;;;4218378;34;20109;-64
2021/11/12 02:48:46;;;;;;;6.57;5.28;;;;;;;;;;4218304;34;20212;-64
2021/11/12 02:51:20;;;;;;;7.85;5.18;;;;;;;;;;4218466;34;20117;-64
2021/11/12 02:53:47;;;;;;;7.40;5.25;;;;;;;;;;4218328;34;20125;-63
2021/11/12 02:56:23;;;;;;;8.55;5.37;;;;;;;;;;4193924;34;20106;-63
2021/11/12 02:58:57;;;;;;;;;;;;;;;;;;4206621;34;20131;-64
2021/11/12 03:01:24;;;;;;;7.30;5.53;;;;;;;;;;4218447;34;20000;-63
2021/11/12 03:03:51;;;;;;;8.75;4.60;;;;;;;;;;4218167;34;20461;-63
2021/11/12 03:06:17;;;;;;;5.45;4.62;;;;;;;;;;4217372;34;20128;-63
2021/11/12 03:08:43;;;;;;;9.55;4.82;;;;;;;;;;4218125;34;20177;-63
2021/11/12 03:11:09;;;;;;;7.68;5.10;;;;;;;;;;4217955;34;20529;-63
2021/11/12 03:13:35;;;;;;;6.10;5.20;;;;;;;;;;4218076;34;20125;-63
2021/11/12 03:16:02;;;;;;;6.47;4.93;;;;;;;;;;4217996;34;20105;-64
2021/11/12 03:18:30;;;;;;;10.82;5.72;;;;;;;;;;4217901;34;20204;-64
2021/11/12 03:20:56;;;;;;;8.32;6.00;;;;;;;;;;4217771;34;20170;-64
2021/11/12 03:23:27;;;;;;;7.37;5.20;;;;;;;;;;4205141;34;20220;-63
2021/11/12 03:26:22;;;;;;;7.28;5.57;;;;;;;;;;4217798;34;20534;-63
2021/11/12 03:46:54;;;;;;;6.55;5.62;;;;;;;;;;4217851;34;20446;-61
2021/11/12 04:04:20;;;;;;;7.40;5.45;;;;;;;;;;4217449;34;20125;-68
2021/11/12 04:39:49;;;;;;;9.73;7.00;;;;;;;;;;4219468;34;20101;-60
2021/11/12 05:25:33;;;;;;;8.10;6.30;;;;;;;;;;4218792;34;20533;-63
2021/11/12 05:44:15;;;;;;;8.30;6.68;;;;;;;;;;4218984;34;20121;-64
2021/11/12 05:55:06;;;;;;;8.23;6.50;;;;;;;;;;4218751;34;20101;-62
2021/11/12 05:57:32;;;;;;;11.60;6.72;;;;;;;;;;4207697;34;20531;-63
2021/11/12 05:59:58;;;;;;;8.30;6.82;;;;;;;;;;4205972;34;20105;-62
2021/11/12 06:02:24;;;;;;;7.70;6.20;;;;;;;;;;4218519;34;20131;-62
2021/11/12 06:04:51;;;;;;;7.90;5.78;;;;;;;;;;4218493;34;20117;-62
2021/11/12 06:07:16;;;;;;;7.70;6.43;;;;;;;;;;4218573;34;20561;-62
2021/11/12 06:09:42;;;;;;;9.30;6.07;;;;;;;;;;4218934;34;20204;-64
2021/11/12 06:12:11;;;;;;;9.50;6.45;;;;;;;;;;4218778;34;20225;-63
2021/11/12 06:14:37;;;;;;;7.22;5.78;;;;;;;;;;4218786;34;20532;-63
2021/11/12 06:17:03;;;;;;;8.93;6.45;;;;;;;;;;4218657;34;20122;-63
2021/11/12 06:19:29;;;;;;;7.10;5.70;;;;;;;;;;4218567;34;20140;-62
2021/11/12 06:21:55;;;;;;;7.50;6.45;;;;;;;;;;4205368;34;20240;-64
2021/11/12 06:24:22;;;;;;;9.07;5.90;;;;;;;;;;4218451;34;20204;-64
2021/11/12 06:26:48;;;;;;;7.45;6.03;;;;;;;;;;4218574;34;20117;-63
2021/11/12 06:29:14;;;;;;;7.93;6.12;;;;;;;;;;4218693;34;20160;-64
2021/11/12 06:31:40;;;;;;;9.18;6.37;;;;;;;;;;4218333;34;20120;-63
2021/11/12 06:34:06;;;;;;;9.73;5.90;;;;;;;;;;4218612;34;20120;-63
2021/11/12 06:36:32;;;;;;;8.90;6.40;;;;;;;;;;4218325;34;20132;-63
2021/11/12 06:38:59;;;;;;;8.15;6.87;;;;;;;;;;4218360;34;20111;-63
2021/11/12 06:41:40;;;;;;;8.45;6.53;;;;;;;;;;4217480;34;20553;-63
2021/11/12 06:49:30;;;;;;;9.27;6.47;;;;;;;;;;4205605;34;20569;-62
2021/11/12 06:51:57;;;;;;;9.02;6.57;;;;;;;;;;4218218;34;20137;-63
2021/11/12 06:54:23;;;;;;;8.98;6.22;;;;;;;;;;4205551;34;20132;-64
2021/11/12 06:56:49;;;;;;;7.95;6.10;;;;;;;;;;4218134;34;20470;-64
2021/11/12 06:59:15;;;;;;;8.95;6.30;;;;;;;;;;4205185;34;20082;-63
2021/11/12 07:01:41;;;;;;;9.95;6.55;;;;;;;;;;4218280;34;20115;-63
2021/11/12 07:04:06;;;;;;;8.18;6.07;;;;;;;;;;4218132;34;20135;-63
2021/11/12 07:06:35;;;;;;;8.80;6.10;;;;;;;;;;4218114;34;20109;-64
2021/11/12 07:09:00;;;;;;;7.62;6.37;;;;;;;;;;4218117;34;20118;-64
2021/11/12 07:11:26;;;;;;;12.00;6.97;;;;;;;;;;4218132;34;20216;-64
2021/11/12 07:13:52;;;;;;;9.60;6.70;;;;;;;;;;4218359;34;20112;-63
2021/11/12 07:16:18;;;;;;;11.40;6.93;;;;;;;;;;4218115;34;20098;-63
2021/11/12 07:18:44;;;;;;;11.45;7.50;;;;;;;;;;4217940;34;20113;-63
2021/11/12 07:21:10;;;;;;;11.27;7.10;;;;;;;;;;4216635;34;20114;-63
2021/11/12 07:23:36;;;;;;;10.93;6.87;;;;;;;;;;4204439;34;20478;-63
2021/11/12 07:26:02;;;;;;;9.02;7.10;;;;;;;;;;4217339;34;20135;-64
2021/11/12 07:28:28;;;;;;;13.38;6.85;;;;;;;;;;4217541;34;20121;-63
2021/11/12 07:30:55;;;;;;;9.00;6.72;;;;;;;;;;4204834;34;20208;-64
2021/11/12 07:33:21;;;;;;;11.38;6.53;;;;;;;;;;4217427;34;20124;-63
2021/11/12 07:35:53;;;;;;;9.93;7.28;;;;;;;;;;4217645;34;20193;-63
2021/11/12 07:38:23;;;;;;;8.45;7.05;;;;;;;;;;4217595;34;20125;-64
2021/11/12 07:41:02;;;;;;;10.05;6.20;;;;;;;;;;4217403;34;20197;-64
2021/11/12 07:46:33;;;;;;;9.68;7.53;;;;;;;;;;4203262;34;20438;-64
2021/11/12 07:48:45;;;;;;;12.63;8.18;;;;;;;;;;4204563;34;20541;-63
2021/11/12 07:51:12;;;;;;;8.10;7.12;;;;;;;;;;4203753;34;20217;-65
2021/11/12 07:53:38;;;;;;;8.93;7.05;;;;;;;;;;4217310;34;20097;-64
2021/11/12 07:56:05;;;;;;;9.30;6.43;;;;;;;;;;4219496;34;20124;-64
2021/11/12 07:58:31;;;;;;;8.43;5.87;;;;;;;;;;4219295;34;20159;-63
2021/11/12 08:00:57;;;;;;;8.75;5.93;;;;;;;;;;4219579;34;20112;-61
2021/11/12 08:03:23;;;;;;;9.70;6.25;;;;;;;;;;4219535;34;20524;-64
2021/11/12 08:05:52;;;;;;;7.53;5.87;;;;;;;;;;4219424;34;20447;-67
2021/11/12 08:08:20;;;;;;;14.93;6.60;;;;;;;;;;4206657;34;20156;-60
2021/11/12 08:10:53;;;;;;;8.93;6.50;;;;;;;;;;4219050;34;20108;-61
2021/11/12 08:14:09;;;;;;;9.18;6.40;;;;;;;;;;4219404;34;20140;-62
2021/11/12 08:24:12;;;;;;;9.55;6.00;;;;;;;;;;4215892;34;20137;-60
2021/11/12 08:27:36;;;;;;;10.38;6.57;;;;;;;;;;4206270;34;20109;-61
2021/11/12 08:34:51;;;;;;;10.70;6.30;;;;;;;;;;4179193;34;20110;-59
2021/11/12 08:37:47;;;;;;;7.95;5.82;;;;;;;;;;4207558;34;20122;-61
2021/11/12 08:40:11;;;;;;;;;;;;;;;;;;4219048;34;20200;-61
2021/11/12 08:45:25;;;;;;;7.70;5.97;;;;;;;;;;4219210;34;20200;-61
2021/11/12 08:47:54;;;;;;;9.10;6.10;;;;;;;;;;4205474;34;20137;-61
2021/11/12 08:50:24;;;;;;;9.27;6.03;;;;;;;;;;4206639;34;20093;-61
2021/11/12 08:52:52;;;;;;;7.72;6.22;;;;;;;;;;4217732;34;20129;-61
2021/11/12 08:55:27;;;;;;;8.82;6.15;;;;;;;;;;4219079;34;20108;-60
2021/11/12 08:57:53;;;;;;;7.00;6.30;;;;;;;;;;4218902;34;20486;-60
2021/11/12 09:00:20;;;;;;;4.72;2.90;;;;;;;;;;4205878;34;20161;-62
2021/11/12 09:02:46;;;;;;;6.62;5.75;;;;;;;;;;4218773;34;20116;-61
2021/11/12 09:05:13;;;;;;;8.43;5.87;;;;;;;;;;4218352;34;20481;-60
2021/11/12 09:07:40;;;;;;;7.97;6.45;;;;;;;;;;4217629;34;20101;-59
2021/11/12 09:10:06;;;;;;;11.75;6.85;;;;;;;;;;4217948;34;20267;-59
2021/11/12 09:12:33;;;;;;;10.05;7.03;;;;;;;;;;4217142;34;20193;-60
2021/11/12 09:15:00;;;;;;;9.85;5.93;;;;;;;;;;4217660;34;20490;-61
2021/11/12 09:17:30;;;;;;;11.38;6.20;;;;;;;;;;4215118;34;20120;-60
2021/11/12 09:20:00;;;;;;;8.52;7.12;;;;;;;;;;4218957;34;20196;-61
2021/11/12 09:22:31;;;;;;;9.23;6.62;;;;;;;;;;4218649;34;20101;-70
2021/11/12 09:24:57;;;;;;;7.22;5.82;;;;;;;;;;4218773;34;20121;-67
2021/11/12 09:27:23;;;;;;;7.53;6.18;;;;;;;;;;4218807;34;20093;-66
2021/11/12 09:29:49;;;;;;;7.97;6.20;;;;;;;;;;4206117;34;20105;-66
2021/11/12 09:32:15;;;;;;;8.57;6.90;;;;;;;;;;4205724;34;20109;-64
2021/11/12 09:34:41;;;;;;;8.27;6.35;;;;;;;;;;4205700;34;20102;-63
2021/11/12 09:37:09;;;;;;;7.03;5.62;;;;;;;;;;4218383;34;20525;-64
2021/11/12 09:39:36;;;;;;;9.00;5.80;;;;;;;;;;4206066;34;20464;-63
2021/11/12 09:42:03;;;;;;;9.63;6.57;;;;;;;;;;4218530;34;20209;-63
2021/11/12 09:44:30;;;;;;;7.78;5.93;;;;;;;;;;4205881;34;20189;-64
2021/11/12 09:46:55;;;;;;;8.02;5.75;;;;;;;;;;4193970;34;20513;-62
2021/11/12 09:49:21;;;;;;;7.87;5.75;;;;;;;;;;4205867;34;20117;-63
2021/11/12 09:51:47;;;;;;;6.85;5.97;;;;;;;;;;4205421;34;20201;-63
2021/11/12 09:54:13;;;;;;;8.57;6.47;;;;;;;;;;4217720;34;20133;-62
2021/11/12 09:56:39;;;;;;;9.75;6.00;;;;;;;;;;4218471;34;20129;-62
2021/11/12 09:59:05;;;;;;;8.23;5.97;;;;;;;;;;4217814;34;20105;-62
2021/11/12 10:01:34;;;;;;;11.25;6.72;;;;;;;;;;4182693;34;20177;-63
2021/11/12 10:04:04;;;;;;;8.30;6.87;;;;;;;;;;4217974;34;20113;-62
2021/11/12 10:06:37;;;;;;;6.80;5.78;;;;;;;;;;4218774;34;20537;-62
2021/11/12 10:09:03;;;;;;;7.90;5.82;;;;;;;;;;4205246;34;20109;-63
2021/11/12 10:11:31;;;;;;;8.38;6.53;;;;;;;;;;4193888;34;20313;-63
2021/11/12 10:14:01;;;;;;;8.65;6.22;;;;;;;;;;4205120;34;20208;-62
2021/11/12 10:16:42;;;;;;;10.02;6.80;;;;;;;;;;4218311;34;20546;-62
2021/11/12 10:19:12;;;;;;;9.90;7.60;;;;;;;;;;4217883;34;20297;-62
2021/11/12 10:21:47;;;;;;;8.95;7.12;;;;;;;;;;4205473;34;20499;-63
2021/11/12 10:24:25;;;;;;;7.87;6.65;;;;;;;;;;4205673;34;20108;-64
2021/11/12 10:26:53;;;;;;;8.13;6.68;;;;;;;;;;4202941;34;20094;-62
2021/11/12 10:29:22;;;;;;;9.90;7.72;;;;;;;;;;4193422;34;20101;-62
2021/11/12 10:31:54;;;;;;;11.18;9.13;;;;;;;;;;4190522;34;20217;-61
2021/11/12 10:34:28;;;;;;;11.52;7.60;;;;;;;;;;4197222;34;20132;-62
2021/11/12 10:36:56;;;;;;;9.02;7.20;;;;;;;;;;4204898;34;20120;-62
2021/11/12 10:39:30;;;;;;;10.90;7.55;;;;;;;;;;4194117;34;20113;-62
2021/11/12 10:41:57;;;;;;;9.82;7.07;;;;;;;;;;4205353;34;20129;-62
2021/11/12 10:44:23;;;;;;;8.68;7.03;;;;;;;;;;4218311;34;20205;-60
2021/11/12 10:46:50;;;;;;;10.20;8.48;;;;;;;;;;4160068;34;20430;-61
2021/11/12 10:49:29;;;;;;;8.80;6.55;;;;;;;;;;4205375;34;20085;-61
2021/11/12 10:52:19;;;;;;;9.85;6.85;;;;;;;;;;4218172;34;20160;-61
2021/11/12 10:55:01;;;;;;;8.43;6.78;;;;;;;;;;4218057;34;20101;-62
2021/11/12 10:57:35;;;;;;;8.48;5.68;;;;;;;;;;4205572;34;20121;-62
2021/11/12 11:00:13;;;;;;;7.53;6.37;;;;;;;;;;4217573;34;20113;-61
2021/11/12 11:02:45;;;;;;;9.57;6.20;;;;;;;;;;4217147;34;20438;-62
2021/11/12 11:05:22;;;;;;;8.50;6.37;;;;;;;;;;4205300;34;20177;-62
2021/11/12 11:07:53;;;;;;;7.00;6.05;;;;;;;;;;4217975;34;20513;-60
2021/11/12 11:10:40;;;;;;;11.05;6.78;;;;;;;;;;4218021;34;20105;-61
2021/11/12 11:13:12;;;;;;;10.70;8.90;;;;;;;;;;4214946;34;20118;-61
2021/11/12 11:15:42;;;;;;;9.95;8.50;;;;;;;;;;4203082;34;20121;-61
2021/11/12 11:24:17;;;;;;;9.88;6.55;;;;;;;;;;4215473;34;20225;-61
2021/11/12 11:26:46;;;;;;;14.23;7.68;;;;;;;;;;4191925;34;20110;-60
2021/11/12 11:29:14;;;;;;;15.65;9.07;;;;;;;;;;4218958;34;20117;-60
2021/11/12 11:31:40;;;;;;;12.65;9.80;;;;;;;;;;4219353;34;20100;-60
2021/11/12 11:34:06;;;;;;;13.73;8.20;;;;;;;;;;4219620;34;20133;-60
2021/11/12 11:36:34;;;;;;;14.38;9.85;;;;;;;;;;4219727;34;20133;-61
2021/11/12 11:39:03;;;;;;;12.90;8.50;;;;;;;;;;4219649;34;20126;-62
2021/11/12 11:41:29;;;;;;;13.77;9.48;;;;;;;;;;4206825;34;20093;-61
2021/11/12 11:43:55;;;;;;;15.75;10.32;;;;;;;;;;4219276;34;20193;-61
2021/11/12 11:46:29;;;;;;;13.18;8.35;;;;;;;;;;4219644;34;20129;-62
2021/11/12 11:48:59;;;;;;;12.48;9.75;;;;;;;;;;4219762;34;20220;-61
2021/11/12 11:51:32;;;;;;;14.63;10.40;;;;;;;;;;4219506;34;20208;-61
2021/11/12 11:54:05;;;;;;;16.67;9.75;;;;;;;;;;4217600;34;20536;-61
2021/11/12 11:56:39;;;;;;;14.70;10.13;;;;;;;;;;4219128;34;20521;-61
2021/11/12 11:59:05;;;;;;;13.55;8.05;;;;;;;;;;4207237;34;20117;-61
2021/11/12 12:01:35;;;;;;;15.82;10.70;;;;;;;;;;4219374;34;20116;-60
2021/11/12 12:04:07;;;;;;;12.43;9.52;;;;;;;;;;4219306;34;20117;-61
2021/11/12 12:06:34;;;;;;;16.58;9.18;;;;;;;;;;4219159;34;20133;-61
2021/11/12 12:09:08;;;;;;;12.93;8.40;;;;;;;;;;4219492;34;20121;-61
2021/11/12 12:11:55;;;;;;;12.40;9.43;;;;;;;;;;4219294;34;20112;-61
2021/11/12 12:14:24;;;;;;;19.40;11.15;;;;;;;;;;4219359;34;20608;-61
2021/11/12 12:17:10;;;;;;;15.77;12.27;;;;;;;;;;4219169;34;20285;-61
2021/11/12 12:20:03;;;;;;;13.70;10.15;;;;;;;;;;4208387;34;20169;-61
2021/11/12 13:25:38;;;;;;;15.65;11.82;;;;;;;;;;4218988;34;20113;-61
2021/11/12 13:28:12;;;;;;;14.82;11.85;;;;;;;;;;4219195;34;20090;-61
2021/11/12 13:30:39;;;;;;;16.85;13.38;;;;;;;;;;4219077;34;20097;-61
2021/11/12 13:33:05;;;;;;;19.65;12.63;;;;;;;;;;4219266;34;20109;-61
2021/11/12 13:35:35;;;;;;;15.23;11.60;;;;;;;;;;4218962;34;20127;-61
2021/11/12 13:38:02;;;;;;;16.48;11.25;;;;;;;;;;4219211;34;20117;-61
2021/11/12 13:40:32;;;;;;;16.90;11.25;;;;;;;;;;4218463;34;20110;-62
2021/11/12 13:42:58;;;;;;;17.05;12.75;;;;;;;;;;4218610;34;20104;-61
2021/11/12 13:45:25;;;;;;;15.65;11.10;;;;;;;;;;4218937;34;20097;-62
2021/11/12 13:48:13;;;;;;;14.80;10.77;;;;;;;;;;4218710;34;20229;-61
2021/11/12 13:50:51;;;;;;;13.38;10.45;;;;;;;;;;4218577;34;20101;-61
2021/11/12 13:53:17;;;;;;;17.12;10.85;;;;;;;;;;4205988;34;20521;-60
2021/11/12 13:55:44;;;;;;;12.43;10.55;;;;;;;;;;4205916;34;20145;-61
2021/11/12 13:58:10;;;;;;;13.25;10.20;;;;;;;;;;4218611;34;20129;-61
2021/11/12 14:00:36;;;;;;;16.48;11.20;;;;;;;;;;4218430;34;20669;-61
2021/11/12 14:03:07;;;;;;;14.52;10.55;;;;;;;;;;4218504;34;20132;-61
2021/11/12 14:05:38;;;;;;;12.02;10.63;;;;;;;;;;4218552;34;20153;-60
2021/11/12 14:08:09;;;;;;;12.68;10.10;;;;;;;;;;4218677;34;20741;-61
2021/11/12 14:10:44;;;;;;;12.73;9.88;;;;;;;;;;4218611;34;20092;-61
2021/11/12 14:13:11;;;;;;;12.20;9.33;;;;;;;;;;4218556;34;20545;-61
2021/11/12 14:15:43;;;;;;;14.23;9.85;;;;;;;;;;4218540;34;20109;-60
2021/11/12 14:18:19;;;;;;;12.50;8.98;;;;;;;;;;4218688;34;20185;-62
2021/11/12 14:21:35;;;;;;;12.50;9.07;;;;;;;;;;4218253;34;20130;-61
2021/11/12 14:32:39;;;;;;;14.68;10.27;;;;;;;;;;4218422;34;20085;-62
2021/11/12 14:38:10;;;;;;;14.23;9.38;;;;;;;;;;4218361;34;20600;-62
2021/11/12 14:54:36;;;;;;;15.32;9.70;;;;;;;;;;4194710;33;20522;-61
2021/11/12 14:57:08;;;;;;;12.57;9.23;;;;;;;;;;4225867;33;20113;-62
2021/11/12 14:59:36;;;;;;;14.10;8.73;;;;;;;;;;4224382;33;20724;-62
2021/11/12 15:02:06;;;;;;;12.68;9.68;;;;;;;;;;4211730;33;20110;-62
2021/11/12 15:04:32;;;;;;;10.95;8.98;;;;;;;;;;4228757;33;20200;-62
2021/11/12 15:06:59;;;;;;;18.62;9.13;;;;;;;;;;4232167;33;20200;-62
2021/11/12 15:09:29;;;;;;;11.15;9.40;;;;;;;;;;4224338;33;20144;-60
2021/11/12 15:11:55;;;;;;;13.25;10.05;;;;;;;;;;4211625;34;20153;-63
2021/11/12 15:14:29;;;;;;;12.98;9.68;;;;;;;;;;4218116;34;20360;-62
2021/11/12 15:16:56;;;;;;;11.93;9.20;;;;;;;;;;4193337;34;20522;-62
2021/11/12 15:19:23;;;;;;;11.57;9.10;;;;;;;;;;4217728;34;20106;-62
2021/11/12 15:29:53;;;;;;;14.10;10.20;;;;;;;;;;4217905;34;20094;-59
2021/11/12 15:32:29;;;;;;;13.43;10.30;;;;;;;;;;4204549;34;20129;-61
2021/11/12 15:35:04;;;;;;;13.02;9.90;;;;;;;;;;4217332;34;20093;-59
2021/11/12 15:37:39;;;;;;;15.23;10.43;;;;;;;;;;4217604;34;20461;-59
2021/11/12 15:40:11;;;;;;;11.85;9.77;;;;;;;;;;4217493;34;20125;-61
2021/11/12 15:48:09;;;;;;;15.07;9.43;;;;;;;;;;4203408;34;20209;-62
2021/11/12 15:53:16;;;;;;;12.93;9.73;;;;;;;;;;4216645;33;20203;-62
2021/11/12 16:06:39;;;;;;;12.02;9.63;;;;;;;;;;4216996;34;20118;-61
2021/11/12 16:11:50;;;;;;;15.65;12.20;;;;;;;;;;4204046;34;20144;-62
2021/11/12 16:14:20;;;;;;;14.87;11.07;;;;;;;;;;4219114;34;20129;-62
2021/11/12 16:19:36;;;;;;;12.13;8.97;;;;;;;;;;4207411;34;20125;-63
2021/11/12 16:27:22;;;;;;;14.50;10.52;;;;;;;;;;4218654;34;20109;-61
2021/11/12 16:29:50;;;;;;;14.98;9.98;;;;;;;;;;4219344;34;20181;-63
2021/11/12 16:34:56;;;;;;;11.85;8.90;;;;;;;;;;4204175;34;20098;-60
2021/11/12 16:37:25;;;;;;;13.35;9.10;;;;;;;;;;4205594;34;20526;-60
2021/11/12 16:40:07;;;;;;;12.07;8.95;;;;;;;;;;4205506;34;20212;-61
2021/11/12 16:53:09;;;;;;;12.25;7.82;;;;;;;;;;4205225;34;20119;-59
2021/11/12 17:45:54;;;;;;;6.40;5.80;;;;;;;;;;4218909;34;20462;-59
2021/11/12 17:48:23;;;;;;;7.55;6.70;;;;;;;;;;4218699;34;20558;-59
2021/11/12 18:04:45;;;;;;;7.55;6.85;;;;;;;;;;4219219;34;20109;-69
2021/11/12 21:46:47;;;;;;;5.20;4.70;;;;;;;;;;4206225;34;20172;-66
2021/11/12 21:49:14;;;;;;;5.72;5.07;;;;;;;;;;4218754;34;20105;-64
2021/11/12 21:51:41;;;;;;;5.70;5.00;;;;;;;;;;4218856;34;20177;-65
2021/11/12 21:54:07;;;;;;;5.80;5.20;;;;;;;;;;4205990;34;20465;-65
2021/11/12 21:56:33;;;;;;;7.00;5.55;;;;;;;;;;4218744;34;20098;-65
2021/11/12 21:59:00;;;;;;;6.03;5.43;;;;;;;;;;4218806;34;20100;-65
2021/11/12 22:01:26;;;;;;;6.30;5.70;;;;;;;;;;4218835;34;20524;-65
2021/11/12 22:03:52;;;;;;;6.80;6.20;;;;;;;;;;4219136;34;20105;-65
2021/11/12 22:06:18;;;;;;;6.90;6.20;;;;;;;;;;4218973;34;20121;-65
2021/11/12 22:08:45;;;;;;;6.25;5.65;;;;;;;;;;4218551;34;20224;-65
2021/11/12 22:11:11;;;;;;;6.70;6.10;;;;;;;;;;4218357;34;20112;-65
2021/11/12 22:13:37;;;;;;;8.10;6.97;;;;;;;;;;4205834;34;20101;-64
2021/11/12 22:16:07;;;;;;;7.40;6.65;;;;;;;;;;4218690;34;20469;-65
2021/11/12 22:18:33;;;;;;;8.13;7.32;;;;;;;;;;4218637;34;20109;-65
2021/11/12 22:20:59;;;;;;;8.45;6.97;;;;;;;;;;4218785;34;20116;-65
2021/11/12 22:23:25;;;;;;;7.70;7.00;;;;;;;;;;4218477;34;20121;-65
2021/11/12 22:25:52;;;;;;;6.85;6.18;;;;;;;;;;4218521;34;20193;-65
2021/11/12 22:28:18;;;;;;;7.22;6.53;;;;;;;;;;4205682;34;20101;-66
2021/11/12 22:30:44;;;;;;;6.72;6.10;;;;;;;;;;4218512;34;20125;-66
2021/11/12 22:33:10;;;;;;;7.87;6.75;;;;;;;;;;4218469;34;20116;-65
2021/11/12 22:35:36;;;;;;;6.53;5.93;;;;;;;;;;4218742;34;20105;-66
2021/11/12 22:38:04;;;;;;;6.60;6.00;;;;;;;;;;4218475;34;20556;-66
2021/11/12 22:40:30;;;;;;;7.15;6.15;;;;;;;;;;4218456;34;20105;-65
2021/11/12 22:42:56;;;;;;;7.03;6.32;;;;;;;;;;4218671;34;20129;-66
2021/11/12 22:45:22;;;;;;;7.85;6.68;;;;;;;;;;4218445;34;20207;-65
2021/11/12 22:47:48;;;;;;;6.45;5.85;;;;;;;;;;4218278;34;20133;-65
2021/11/12 22:50:14;;;;;;;7.03;6.32;;;;;;;;;;4218677;34;20142;-65
2021/11/12 22:52:41;;;;;;;6.37;5.78;;;;;;;;;;4218431;34;20420;-65
2021/11/12 22:55:07;;;;;;;6.78;6.12;;;;;;;;;;4205553;34;20526;-65
2021/11/12 22:57:33;;;;;;;7.53;6.32;;;;;;;;;;4218295;34;20125;-66
2021/11/12 22:59:59;;;;;;;7.15;6.45;;;;;;;;;;4218173;34;20116;-66
2021/11/12 23:02:25;;;;;;;6.45;5.82;;;;;;;;;;4218535;34;20232;-65
2021/11/12 23:04:50;;;;;;;6.62;5.93;;;;;;;;;;4218118;34;20197;-66
2021/11/12 23:07:17;;;;;;;6.15;5.50;;;;;;;;;;4218230;34;20536;-63
2021/11/12 23:09:44;;;;;;;6.82;6.10;;;;;;;;;;4193843;34;20132;-64
2021/11/12 23:12:11;;;;;;;6.90;6.22;;;;;;;;;;4218142;34;20449;-64
2021/11/12 23:14:37;;;;;;;7.10;6.40;;;;;;;;;;4218150;34;20118;-63
2021/11/12 23:17:04;;;;;;;6.78;6.18;;;;;;;;;;4218333;34;20119;-64
2021/11/12 23:19:30;;;;;;;7.20;6.47;;;;;;;;;;4218219;34;20144;-64
2021/11/12 23:21:56;;;;;;;6.78;6.03;;;;;;;;;;4218054;34;20613;-65
2021/11/12 23:24:22;;;;;;;6.97;6.32;;;;;;;;;;4219600;34;20128;-65
2021/11/12 23:26:48;;;;;;;7.45;6.12;;;;;;;;;;4220040;34;20457;-65
2021/11/12 23:29:13;;;;;;;7.68;6.53;;;;;;;;;;4220031;34;20125;-65
2021/11/12 23:31:39;;;;;;;6.57;5.93;;;;;;;;;;4220249;34;20190;-65
2021/11/12 23:34:05;;;;;;;6.75;6.07;;;;;;;;;;4207346;34;20506;-65
2021/11/12 23:36:31;;;;;;;7.20;6.50;;;;;;;;;;4220071;34;20521;-65
2021/11/12 23:38:57;;;;;;;7.28;6.60;;;;;;;;;;4220115;34;20120;-67
2021/11/12 23:41:23;;;;;;;6.93;6.32;;;;;;;;;;4219928;34;20137;-66
2021/11/12 23:43:49;;;;;;;6.95;6.25;;;;;;;;;;4220021;34;20556;-66
2021/11/12 23:46:15;;;;;;;6.78;6.07;;;;;;;;;;4219934;34;20128;-66
2021/11/12 23:48:41;;;;;;;7.25;6.55;;;;;;;;;;4220044;34;20097;-67
